Naikai2 — JD2433 — position and weather

sailwx.info

Track history (hours):
 
Tides and Currents Weather Stations Pressure Air Temp Water Temp Dewpoint Dewpoint Depression Visibility Wind Speed Wind Dir Waves Ship Positions

Naikai2

Last reported at 2015-Jul-31 00:31 UTC. Time now 2015-Aug-03 10:41 UTC.
Position N 34°12' E 135°00'.

Length 28 m; draft 2.2 m.

Type: Other ship. MMSI: 431000283.

Date/timePositionNaut miles runAvg speedWind from/ knotsBaromVisibWave heightAir tempDewpointWater temp
2015-Jul-31 00:31N 34°12' E 135°00'29 1.2
2015-Jul-30 00:07N 34°39' E 135°10'1 2.1
2015-Jul-29 23:33N 34°40' E 135°11'1 0.0
2015-Jul-28 06:09N 34°39' E 135°10'812.9
2015-Jul-28 05:33N 34°32' E 135°07'1514.7
2015-Jul-28 04:31N 34°18' E 134°60'7 6.6
2015-Jul-28 03:31N 34°24' E 135°01'1111.0
2015-Jul-28 02:34N 34°34' E 135°05'7 0.3
2015-Jul-27 02:21N 34°37' E 134°57'7 8.8
2015-Jul-27 01:33N 34°35' E 135°05'6 6.0
2015-Jul-27 00:33N 34°29' E 135°08'1611.0
2015-Jul-26 23:05N 34°15' E 134°59'3 3.5
2015-Jul-26 22:12N 34°18' E 134°59'1014.3
2015-Jul-26 21:32N 34°27' E 135°03'1313.8
2015-Jul-26 20:33N 34°39' E 135°10'0 0.0
2015-Jul-26 06:33N 34°39' E 135°10'1413.9
2015-Jul-26 05:33N 34°34' E 135°26'4 4.1
2015-Jul-26 04:33N 34°33' E 135°21'7 7.3
2015-Jul-26 03:34N 34°37' E 135°13'3 3.4
2015-Jul-26 02:33N 34°39' E 135°10'1 0.1
2015-Jul-25 09:17N 34°38' E 135°10'810.0
2015-Jul-25 08:32N 34°37' E 135°01'5 5.0
2015-Jul-25 07:33N 34°37' E 135°07'3 3.2
2015-Jul-25 06:33N 34°39' E 135°10'0 0.0
2015-Jul-24 23:19N 34°39' E 135°10'1 0.4
2015-Jul-24 20:06N 34°40' E 135°11'5 9.1
2015-Jul-24 19:33N 34°37' E 135°06'4 3.6
2015-Jul-24 18:33N 34°37' E 135°01'7 6.9
2015-Jul-24 17:33N 34°37' E 135°10'2 1.7
2015-Jul-24 16:33N 34°39' E 135°10'2 0.4
2015-Jul-24 10:33N 34°37' E 135°10'1614.4
2015-Jul-24 09:28N 34°22' E 135°02'5 5.6
2015-Jul-24 08:30N 34°18' E 134°58'1314.1
2015-Jul-24 07:33N 34°30' E 135°05'9 7.7
2015-Jul-24 06:26N 34°37' E 134°58'2 0.5
2015-Jul-24 02:18N 34°36' E 134°56'810.4
2015-Jul-24 01:33N 34°35' E 135°05'4 3.2
2015-Jul-24 00:23N 34°36' E 135°01'0 0.0
2015-Jul-23 23:32N 34°36' E 135°01'0 0.0
2015-Jul-23 22:33N 34°36' E 135°01'0 0.0
2015-Jul-23 21:33N 34°36' E 135°01'0 0.0
2015-Jul-23 20:32N 34°36' E 135°01'0 0.0
2015-Jul-23 19:33N 34°36' E 135°01'2 2.5
2015-Jul-23 18:33N 34°38' E 134°58'9 9.1
2015-Jul-23 17:33N 34°36' E 135°09'3 2.8
2015-Jul-23 16:33N 34°39' E 135°10'0 0.0
2015-Jul-22 14:09N 34°39' E 135°10'814.0
2015-Jul-22 13:33N 34°31' E 135°06'9 4.4
2015-Jul-22 11:29N 34°23' E 135°01'1212.5
2015-Jul-22 10:33N 34°33' E 135°09'20 4.4
2015-Jul-22 06:04N 34°41' E 134°47'712.3
2015-Jul-22 05:31N 34°38' E 134°54'1414.4
2015-Jul-22 04:34N 34°39' E 135°11'1 0.5
2015-Jul-22 03:33N 34°39' E 135°10'4 0.2
2015-Jul-21 09:33N 34°37' E 135°05'7 1.0
2015-Jul-21 02:13N 34°37' E 134°57'710.5
2015-Jul-21 01:33N 34°35' E 135°05'5 4.8
2015-Jul-21 00:33N 34°31' E 135°06'  
Track history (hours):
 
Tides and Currents Weather Stations Pressure Air Temp Water Temp Dewpoint Dewpoint Depression Visibility Wind Speed Wind Dir Waves Ship Positions

Naikai2

Last reported at 2015-Jul-31 00:31 UTC. Time now 2015-Aug-03 10:41 UTC.
Position N 34°12' E 135°00'.

Length 28 m; draft 2.2 m.

Type: Other ship. MMSI: 431000283.

Date/timePositionNaut miles runAvg speedWind from/ knotsBaromVisibWave heightAir tempDewpointWater temp
2015-Jul-31 00:31N 34°12' E 135°00'29 1.2
2015-Jul-30 00:07N 34°39' E 135°10'1 2.1
2015-Jul-29 23:33N 34°40' E 135°11'1 0.0
2015-Jul-28 06:09N 34°39' E 135°10'812.9
2015-Jul-28 05:33N 34°32' E 135°07'1514.7
2015-Jul-28 04:31N 34°18' E 134°60'7 6.6
2015-Jul-28 03:31N 34°24' E 135°01'1111.0
2015-Jul-28 02:34N 34°34' E 135°05'7 0.3
2015-Jul-27 02:21N 34°37' E 134°57'7 8.8
2015-Jul-27 01:33N 34°35' E 135°05'6 6.0
2015-Jul-27 00:33N 34°29' E 135°08'1611.0
2015-Jul-26 23:05N 34°15' E 134°59'3 3.5
2015-Jul-26 22:12N 34°18' E 134°59'1014.3
2015-Jul-26 21:32N 34°27' E 135°03'1313.8
2015-Jul-26 20:33N 34°39' E 135°10'0 0.0
2015-Jul-26 06:33N 34°39' E 135°10'1413.9
2015-Jul-26 05:33N 34°34' E 135°26'4 4.1
2015-Jul-26 04:33N 34°33' E 135°21'7 7.3
2015-Jul-26 03:34N 34°37' E 135°13'3 3.4
2015-Jul-26 02:33N 34°39' E 135°10'1 0.1
2015-Jul-25 09:17N 34°38' E 135°10'810.0
2015-Jul-25 08:32N 34°37' E 135°01'5 5.0
2015-Jul-25 07:33N 34°37' E 135°07'3 3.2
2015-Jul-25 06:33N 34°39' E 135°10'0 0.0
2015-Jul-24 23:19N 34°39' E 135°10'1 0.4
2015-Jul-24 20:06N 34°40' E 135°11'5 9.1
2015-Jul-24 19:33N 34°37' E 135°06'4 3.6
2015-Jul-24 18:33N 34°37' E 135°01'7 6.9
2015-Jul-24 17:33N 34°37' E 135°10'2 1.7
2015-Jul-24 16:33N 34°39' E 135°10'2 0.4
2015-Jul-24 10:33N 34°37' E 135°10'1614.4
2015-Jul-24 09:28N 34°22' E 135°02'5 5.6
2015-Jul-24 08:30N 34°18' E 134°58'1314.1
2015-Jul-24 07:33N 34°30' E 135°05'9 7.7
2015-Jul-24 06:26N 34°37' E 134°58'2 0.5
2015-Jul-24 02:18N 34°36' E 134°56'810.4
2015-Jul-24 01:33N 34°35' E 135°05'4 3.2
2015-Jul-24 00:23N 34°36' E 135°01'0 0.0
2015-Jul-23 23:32N 34°36' E 135°01'0 0.0
2015-Jul-23 22:33N 34°36' E 135°01'0 0.0
2015-Jul-23 21:33N 34°36' E 135°01'0 0.0
2015-Jul-23 20:32N 34°36' E 135°01'0 0.0
2015-Jul-23 19:33N 34°36' E 135°01'2 2.5
2015-Jul-23 18:33N 34°38' E 134°58'9 9.1
2015-Jul-23 17:33N 34°36' E 135°09'3 2.8
2015-Jul-23 16:33N 34°39' E 135°10'0 0.0
2015-Jul-22 14:09N 34°39' E 135°10'814.0
2015-Jul-22 13:33N 34°31' E 135°06'9 4.4
2015-Jul-22 11:29N 34°23' E 135°01'1212.5
2015-Jul-22 10:33N 34°33' E 135°09'20 4.4
2015-Jul-22 06:04N 34°41' E 134°47'712.3
2015-Jul-22 05:31N 34°38' E 134°54'1414.4
2015-Jul-22 04:34N 34°39' E 135°11'1 0.5
2015-Jul-22 03:33N 34°39' E 135°10'4 0.2
2015-Jul-21 09:33N 34°37' E 135°05'7 1.0
2015-Jul-21 02:13N 34°37' E 134°57'710.5
2015-Jul-21 01:33N 34°35' E 135°05'5 4.8
2015-Jul-21 00:33N 34°31' E 135°06'  

Dump ship's entire track history